This is the latest recevied weather packets stored in our database for station/object IZ1RFL-3. If no packets are shown the sender has not sent any weather packets the latest 10 day(s).
| Time | Temp. | Humidity | Pressure | Rain* | Wind** | Luminosity | Snow |
|---|---|---|---|---|---|---|---|
| 1777838465 | 17.22° C | 44% | 1017.7 hPa | - | - | - | - |
| 1777837565 | 17.22° C | 43% | 1017.5 hPa | - | - | - | - |
| 1777836665 | 17.78° C | 42% | 1017.6 hPa | - | - | - | - |
| 1777835764 | 17.78° C | 42% | 1017.4 hPa | - | - | - | - |
| 1777834864 | 17.78° C | 40% | 1017.3 hPa | - | - | - | - |
| 1777833965 | 17.78° C | 40% | 1017.3 hPa | - | - | - | - |
| 1777833065 | 17.78° C | 40% | 1017.2 hPa | - | - | - | - |
| 1777832164 | 18.33° C | 39% | 1017.1 hPa | - | - | - | - |
| 1777831265 | 18.89° C | 40% | 1017.2 hPa | - | - | - | - |
| 1777830365 | 18.33° C | 41% | 1017.2 hPa | - | - | - | - |
| 1777829464 | 18.33° C | 40% | 1017.3 hPa | - | - | - | - |
| 1777828565 | 18.89° C | 39% | 1017.3 hPa | - | - | - | - |
| 1777827664 | 18.89° C | 38% | 1017.4 hPa | - | - | - | - |
| 1777826765 | 19.44° C | 38% | 1017.4 hPa | - | - | - | - |
| 1777825865 | 19.44° C | 39% | 1017.4 hPa | - | - | - | - |
| 1777824964 | 20° C | 38% | 1017.4 hPa | - | - | - | - |
| 1777824064 | 20° C | 39% | 1017.4 hPa | - | - | - | - |
| 1777823165 | 20.56° C | 37% | 1017.5 hPa | - | - | - | - |
| 1777822265 | 20.56° C | 36% | 1017.5 hPa | - | - | - | - |
| 1777821364 | 20.56° C | 37% | 1017.7 hPa | - | - | - | - |
| 1777820465 | 20.56° C | 36% | 1017.9 hPa | - | - | - | - |
| 1777819564 | 20.56° C | 36% | 1017.7 hPa | - | - | - | - |
| 1777818664 | 22.22° C | 32% | 1017.8 hPa | - | - | - | - |
| 1777817765 | 20.56° C | 35% | 1018.3 hPa | - | - | - | - |
| 1777816865 | 21.11° C | 34% | 1018.3 hPa | - | - | - | - |
* Rain since midnight (hover to see other rain measurements)
** Current wind speed in m/s (hover to see current wind gust speed)